AIRPORT_AIRPORT_METAR
METAR FOR KVWU
ADDS - METARS form results

(0545 UTC 01 October 2020)
Data provider http://aviationweather.gov/metar/data/
 
METAR text: KVWU 010535Z AUTO 32011KT 10SM 07/06 A2995 RMK AO2
Conditions at: KVWU (WASKISH MUNI , MN, US) observed 0535 UTC 01 October 2020
Temperature: 7.0°C (45°F)
Dewpoint: 6.0°C (43°F) [RH = 93%]
Pressure (altimeter): 29.95 inches Hg (1014.3 mb)
Winds: from the NW (320 degrees) at 13 MPH (11 knots; 5.7 m/s)
Visibility: 10 or more miles (16+ km)
Ceiling: unknown
Clouds: missing
Weather: automated observation with no human augmentation;
there may or may not be significant weather present at this time

METAR text: KVWU 010515Z AUTO 32009KT 10SM 07/06 A2994 RMK AO2
Conditions at: KVWU (WASKISH MUNI , MN, US) observed 0515 UTC 01 October 2020
Temperature: 7.0°C (45°F)
Dewpoint: 6.0°C (43°F) [RH = 93%]
Pressure (altimeter): 29.94 inches Hg (1014.0 mb)
Winds: from the NW (320 degrees) at 10 MPH (9 knots; 4.6 m/s)
Visibility: 10 or more miles (16+ km)
Ceiling: unknown
Clouds: missing
Weather: automated observation with no human augmentation;
there may or may not be significant weather present at this time

METAR text: KVWU 010455Z AUTO 32008KT 10SM 08/06 A2994 RMK AO2 P0002
Conditions at: KVWU (WASKISH MUNI , MN, US) observed 0455 UTC 01 October 2020
Temperature: 8.0°C (46°F)
Dewpoint: 6.0°C (43°F) [RH = 87%]
Pressure (altimeter): 29.94 inches Hg (1014.0 mb)
Winds: from the NW (320 degrees) at 9 MPH (8 knots; 4.1 m/s)
Visibility: 10 or more miles (16+ km)
Ceiling: unknown
Clouds: missing
Weather: automated observation with no human augmentation;
there may or may not be significant weather present at this time

 AIRPORT_AIRPORT_MAP

 AIRPORT_RUNWAY_INFO
AIRPORT_RUNWAY 02 AIRPORT_RUNWAY_LENGTH 3700 ft AIRPORT_RUNWAY_WIDTH 150 ft
AIRPORT_RUNWAY_ELEVATION 0 ft AIRPORT_RUNWAY_THRESHOLD 0 ft AIRPORT_RUNWAY_HEADING 0
AIRPORT_RUNWAY 20 AIRPORT_RUNWAY_LENGTH 3700 ft AIRPORT_RUNWAY_WIDTH 150 ft
AIRPORT_RUNWAY_ELEVATION 0 ft AIRPORT_RUNWAY_THRESHOLD 0 ft AIRPORT_RUNWAY_HEADING 0

 AIRPORT_AIRPORT_FREQUENCIES

 AIRPORT_AIRPORT_NAVAIDS



Copyright © 2005-2020 - Virtuel Air Alsace - Tous droits réservés